METAR Data
IDs: Format: Raw Decoded Include TAF

Data at: 1655 UTC 06 Jul 2020

KMBT 061635Z AUTO 00000KT 10SM CLR 29/22 A3002 RMK A01
KMBT 061615Z AUTO 00000KT 10SM FEW090 28/22 A3003 RMK A01
KMBT 061555Z AUTO 03005KT 10SM FEW090 27/22 A3003 RMK A01
KMBT 061535Z AUTO VRB04KT 10SM CLR 27/22 A3003 RMK A01
KMBT 061515Z AUTO 35005KT 10SM CLR 27/23 A3003 RMK A01
KMBT 061455Z AUTO 32003KT 10SM SCT070 SCT080 26/22 A3003 RMK A01
KMBT 061435Z AUTO 34005KT 10SM FEW070 SCT080 25/22 A3002 RMK A01
KMBT 061415Z AUTO 34005KT 10SM FEW070 25/22 A3002 RMK A01
KMBT 061355Z AUTO 33006KT 10SM SCT070 BKN090 25/22 A3002 RMK A01
KMBT 061335Z AUTO 35003KT 10SM FEW060 BKN070 BKN090 25/22 A3002 RMK A01
KMBT 061315Z AUTO 00000KT 10SM BKN070 24/22 A3001 RMK A01
KMBT 061255Z AUTO 00000KT 10SM FEW070 24/22 A3001 RMK A01
KMBT 061235Z AUTO 00000KT 10SM CLR 23/22 A3001 RMK A01
KMBT 061215Z AUTO 00000KT 10SM CLR 23/21 A2999 RMK A01
KMBT 061155Z AUTO 00000KT 10SM CLR 23/21 A2999 RMK A01
KMBT 061135Z AUTO 00000KT 10SM CLR 22/21 A2998 RMK A01
KMBT 061115Z AUTO 00000KT 10SM CLR 22/21 A2998 RMK A01
KMBT 061055Z AUTO 00000KT 10SM FEW060 22/21 A2997 RMK A01
KMBT 061035Z AUTO 00000KT 10SM FEW120 22/21 A2997 RMK A01
KMBT 061015Z AUTO 00000KT 10SM FEW055 SCT120 22/21 A2996 RMK A01
KMBT 060955Z AUTO 00000KT 10SM BKN050 22/21 A2996 RMK A01
KMBT 060935Z AUTO 02004KT 10SM BKN050 OVC060 22/21 A2996 RMK A01
KMBT 060915Z AUTO 00000KT 10SM SCT050 OVC055 22/21 A2995 RMK A01
KMBT 060855Z AUTO 00000KT 10SM SCT050 OVC055 22/21 A2994 RMK A01
KMBT 060835Z AUTO 00000KT 10SM BKN050 OVC120 22/21 A2994 RMK A01
KMBT 060815Z AUTO 00000KT 10SM BKN050 BKN055 BKN120 22/21 A2993 RMK A01
KMBT 060755Z AUTO 00000KT 10SM BKN050 BKN055 22/21 A2992 RMK A01
KMBT 060735Z AUTO 00000KT 10SM BKN050 BKN060 22/21 A2992 RMK A01
KMBT 060715Z AUTO 00000KT 10SM FEW038 BKN047 BKN055 23/21 A2993 RMK A01
KMBT 060655Z AUTO 00000KT 10SM FEW038 BKN045 BKN055 23/21 A2993 RMK A01
KMBT 060635Z AUTO 00000KT 10SM BKN043 BKN050 OVC055 23/21 A2993 RMK A01
KMBT 060615Z AUTO 00000KT 10SM SCT041 BKN049 BKN120 23/21 A2994 RMK A01
KMBT 060555Z AUTO 00000KT 10SM SCT047 SCT055 SCT120 23/22 A2995 RMK A01
KMBT 060535Z AUTO 00000KT 10SM SCT047 SCT055 23/22 A2994 RMK A01
KMBT 060515Z AUTO 17003KT 10SM SCT044 BKN049 BKN055 23/21 A2995 RMK A01
KMBT 060455Z AUTO 00000KT 10SM SCT044 BKN050 23/22 A2994 RMK A01
KMBT 060435Z AUTO 00000KT 10SM BKN045 OVC050 23/22 A2995 RMK A01
KMBT 060415Z AUTO 00000KT 10SM OVC045 23/22 A2996 RMK A01
KMBT 060355Z AUTO 00000KT 10SM BKN049 OVC060 23/22 A2997 RMK A01
KMBT 060335Z AUTO 36004KT 10SM BKN050 BKN060 23/22 A2996 RMK A01
KMBT 060315Z AUTO 03004KT 10SM BKN050 OVC055 23/22 A2996 RMK A01
KMBT 060255Z AUTO 01006KT 10SM OVC055 24/22 A2996 RMK A01
KMBT 060235Z AUTO 33004KT 10SM OVC055 24/22 A2996 RMK A01
KMBT 060215Z AUTO 35003KT 10SM OVC055 24/22 A2996 RMK A01
KMBT 060155Z AUTO 02004KT 10SM BKN055 BKN120 24/22 A2996 RMK A01
KMBT 060135Z AUTO 00000KT 10SM FEW120 24/22 A2995 RMK A01
KMBT 060115Z AUTO 00000KT 10SM FEW120 24/23 A2995 RMK A01
KMBT 060055Z AUTO 00000KT 10SM FEW038 FEW055 25/22 A2995 RMK A01
KMBT 060035Z AUTO 03003KT 10SM CLR 25/23 A2994 RMK A01
KMBT 060015Z AUTO 02004KT 10SM CLR 25/23 A2993 RMK A01
KMBT 052355Z AUTO 03004KT 9SM CLR 25/23 A2993 RMK A01
KMBT 052335Z AUTO 00000KT 10SM CLR 25/23 A2991 RMK A01
KMBT 052315Z AUTO 00000KT 10SM CLR 26/20 A2991 RMK A01
KMBT 052255Z AUTO 00000KT 10SM CLR 26/22 A2991 RMK A01
KMBT 052235Z AUTO 24005KT 10SM CLR 26/23 A2992 RMK A01
KMBT 052215Z AUTO 04004KT 10SM CLR 26/23 A2990 RMK A01
KMBT 052155Z AUTO 04004KT 10SM CLR 26/23 A2989 RMK A01
KMBT 052135Z AUTO 05003KT 10SM SCT048 25/23 A2989 RMK A01
KMBT 052115Z AUTO 03003G12KT 10SM SCT048 26/23 A2990 RMK A01
KMBT 052055Z AUTO 05007KT 6SM HZ FEW003 FEW029 FEW034 25/22 A2989 RMK A01 P0074
KMBT 052035Z AUTO 05009KT 3/4SM HZ BKN003 BKN032 BKN050 26/21 A2991 RMK A01
KMBT 052015Z AUTO VRB05KT 1/2SM HZ SCT002 BKN032 BKN048 26/21 A2991 RMK A01
KMBT 051955Z AUTO 26008KT 7SM FEW046 SCT060 BKN080 29/23 A2990 RMK A01 P0003
KMBT 051935Z AUTO 26007G15KT 10SM SCT046 BKN055 BKN080 30/22 A2990 RMK A01
KMBT 051915Z AUTO 00000KT 10SM SCT046 SCT080 SCT090 32/22 A2991 RMK A01
KMBT 051855Z AUTO 15003KT 10SM BKN047 BKN110 32/22 A2992 RMK A01
KMBT 051835Z AUTO 00000KT 10SM BKN048 32/22 A2992 RMK A01
KMBT 051815Z AUTO 00000KT 9SM FEW040 FEW048 32/22 A2993 RMK A01
KMBT 051755Z AUTO 00000KT 10SM SCT040 SCT048 31/22 A2994 RMK A01
KMBT 051735Z AUTO VRB04KT 10SM FEW033 32/23 A2994 RMK A01
KMBT 051715Z AUTO VRB03KT 10SM FEW033 31/23 A2995 RMK A01
KMBT 051655Z AUTO VRB05KT 10SM CLR 31/23 A2995 RMK A01
KMBT 051635Z AUTO VRB03KT 10SM CLR 30/23 A2996 RMK A01
KMBT 051615Z AUTO 18004KT 10SM CLR 30/23 A2997 RMK A01
KMBT 051555Z AUTO 00000KT 10SM CLR 30/23 A2997 RMK A01
KMBT 051535Z AUTO 00000KT 10SM CLR 29/23 A2997 RMK A01
KMBT 051515Z AUTO 00000KT 9SM CLR 27/23 A2997 RMK A01
KMBT 051455Z AUTO 05003KT 6SM HZ CLR 26/23 A2997 RMK A01
KMBT 051435Z AUTO 00000KT 7SM CLR 26/23 A2997 RMK A01
KMBT 051415Z AUTO 00000KT 5SM HZ CLR 26/23 A2997 RMK A01
KMBT 051355Z AUTO 00000KT 8SM CLR 25/22 A2997 RMK A01
KMBT 051335Z AUTO 00000KT 7SM CLR 25/22 A2996 RMK A01
KMBT 051315Z AUTO 00000KT 5SM BR CLR 24/22 A2996 RMK A01
KMBT 051255Z AUTO 00000KT 5SM BR CLR 24/22 A2996 RMK A01
KMBT 051235Z AUTO 00000KT 4SM BR CLR 24/22 A2995 RMK A01
KMBT 051215Z AUTO 00000KT 4SM BR CLR 24/22 A2994 RMK A01
KMBT 051155Z AUTO 00000KT 3SM BR CLR 23/22 A2993 RMK A01
KMBT 051135Z AUTO 00000KT 3SM BR CLR 23/22 A2993 RMK A01
KMBT 051115Z AUTO 00000KT 2SM BR CLR 22/22 A2993 RMK A01
KMBT 051055Z AUTO 00000KT 1 3/4SM BR SCT002 22/21 A2992 RMK A01
KMBT 051035Z AUTO 00000KT 2 1/2SM BR BKN002 22/21 A2991 RMK A01
KMBT 051015Z AUTO 00000KT 3SM BR BKN002 22/21 A2991 RMK A01
KMBT 050955Z AUTO 00000KT 4SM BR FEW049 22/21 A2991 RMK A01
KMBT 050935Z AUTO 00000KT 4SM BR FEW049 22/22 A2990 RMK A01
KMBT 050915Z AUTO 00000KT 5SM BR CLR 23/22 A2990 RMK A01
KMBT 050855Z AUTO 00000KT 5SM BR CLR 23/22 A2989 RMK A01
KMBT 050835Z AUTO 00000KT 6SM BR FEW048 FEW055 23/22 A2989 RMK A01
KMBT 050815Z AUTO 00000KT 5SM BR FEW050 23/22 A2989 RMK A01
KMBT 050755Z AUTO 00000KT 5SM BR CLR 23/22 A2990 RMK A01
KMBT 050735Z AUTO 00000KT 4SM BR CLR 23/22 A2990 RMK A01
KMBT 050715Z AUTO 00000KT 4SM BR CLR 23/22 A2990 RMK A01
KMBT 050655Z AUTO 00000KT 3SM BR CLR 23/22 A2991 RMK A01
KMBT 050635Z AUTO 00000KT 6SM BR FEW004 FEW039 24/22 A2991 RMK A01
KMBT 050615Z AUTO 19003KT 6SM BR FEW055 FEW110 23/22 A2990 RMK A01
KMBT 050555Z AUTO 00000KT 4SM BR FEW055 SCT110 24/23 A2991 RMK A01
KMBT 050535Z AUTO 00000KT 5SM BR FEW050 FEW055 SCT110 24/22 A2992 RMK A01
KMBT 050515Z AUTO 00000KT 6SM BR FEW050 SCT110 24/22 A2993 RMK A01